Canadon Seco, Argentina
Current Conditions -  °F | °C
As of 5:00 AM on Sunday 23 Nov 2014 (Local Time) from SAVC Reporting Station
Clear Clear  
Wind Chill: 57°   Ceiling: Unl
Heat Index: 57°   Visibility: 6mi
Dew Point: 41°   Wind: 15mph
Humidity: 55%   Direction: 290°WNW
Pressure: 29.56"   Gusts: NA
Location:  46.55°S, 67.58°W
Report Text: SAVC 230800Z 29013KT CAVOK 14/05 Q1001
Loading
Personal Weather Stations






























Interactive Weather Map New forecast layout! Learn more

10-Day Weather Forecast

Advertisements
Track Severe Weather on mobile